createdAt,value
2018-10-17T00:00:58.888Z,22.93
2018-10-17T00:03:27.607Z,23.90
2018-10-17T00:05:56.393Z,23.43
2018-10-17T00:08:25.093Z,28.87
2018-10-17T00:10:53.839Z,30.97
2018-10-17T00:13:22.569Z,28.43
2018-10-17T00:15:51.319Z,26.23
2018-10-17T00:18:20.019Z,30.80
2018-10-17T00:20:48.729Z,28.00
2018-10-17T00:23:17.501Z,25.33
2018-10-17T00:25:46.179Z,25.27
2018-10-17T00:28:14.859Z,27.47
2018-10-17T00:30:43.604Z,19.53
2018-10-17T00:33:12.306Z,21.13
2018-10-17T00:35:41.001Z,19.93
2018-10-17T00:38:09.752Z,27.07
2018-10-17T00:40:38.492Z,29.90
2018-10-17T00:43:07.213Z,25.90
2018-10-17T00:45:35.882Z,34.37
2018-10-17T00:48:04.606Z,30.33
2018-10-17T00:50:33.357Z,29.00
2018-10-17T00:53:02.078Z,30.07
2018-10-17T00:55:30.728Z,30.20
2018-10-17T00:57:59.474Z,28.13
2018-10-17T01:00:28.187Z,26.77
2018-10-17T01:02:56.872Z,30.23
2018-10-17T01:05:25.648Z,30.70
2018-10-17T01:07:54.384Z,29.60
2018-10-17T01:10:23.135Z,44.67
2018-10-17T01:12:51.882Z,32.67
2018-10-17T01:15:20.628Z,29.73
2018-10-17T01:17:49.359Z,29.00
2018-10-17T01:20:18.009Z,31.97
2018-10-17T01:22:46.688Z,31.70
2018-10-17T01:25:15.456Z,30.50
2018-10-17T01:27:44.098Z,29.93
2018-10-17T01:30:12.840Z,28.30
2018-10-17T01:32:41.493Z,29.03
2018-10-17T01:35:10.268Z,27.63
2018-10-17T01:37:38.933Z,27.17
2018-10-17T01:40:08.561Z,33.40
2018-10-17T01:42:37.397Z,26.90
2018-10-17T01:45:07.458Z,27.63
2018-10-17T01:47:36.256Z,32.73
2018-10-17T01:50:05.568Z,41.67
2018-10-17T01:52:34.244Z,34.07
2018-10-17T01:55:02.994Z,26.17
2018-10-17T01:57:31.687Z,26.80
2018-10-17T02:00:00.415Z,26.00
2018-10-17T02:02:29.212Z,26.93
2018-10-17T02:04:57.914Z,24.53
2018-10-17T02:07:26.686Z,25.80
2018-10-17T02:09:55.342Z,26.83
2018-10-17T02:12:24.047Z,26.23
2018-10-17T02:14:52.805Z,23.57
2018-10-17T02:17:21.546Z,24.87
2018-10-17T02:19:50.279Z,25.03
2018-10-17T02:22:19.006Z,25.27
2018-10-17T02:24:47.718Z,43.47
2018-10-17T02:27:16.456Z,51.37
2018-10-17T02:29:45.125Z,41.63
2018-10-17T02:32:13.861Z,36.77
2018-10-17T02:34:47.728Z,38.37
2018-10-17T02:37:16.477Z,36.00
2018-10-17T02:39:45.275Z,32.23
2018-10-17T02:42:13.976Z,33.97
2018-10-17T02:44:42.711Z,30.67
2018-10-17T02:47:11.444Z,32.80
2018-10-17T02:49:40.150Z,30.30
2018-10-17T02:52:08.822Z,28.60
2018-10-17T02:54:37.525Z,31.10
2018-10-17T02:57:06.206Z,35.17
2018-10-17T02:59:34.944Z,35.43
2018-10-17T03:02:03.675Z,30.47
2018-10-17T03:04:32.387Z,30.80
2018-10-17T03:07:01.234Z,29.13
2018-10-17T03:09:29.907Z,27.00
2018-10-17T03:11:58.617Z,29.10
2018-10-17T03:14:27.310Z,30.97
2018-10-17T03:16:56.046Z,32.30
2018-10-17T03:19:24.751Z,28.70
2018-10-17T03:21:53.507Z,32.40
2018-10-17T03:24:22.207Z,32.73
2018-10-17T03:26:50.940Z,29.60
2018-10-17T03:29:19.734Z,28.60
2018-10-17T03:31:48.362Z,31.93
2018-10-17T03:34:17.069Z,29.50
2018-10-17T03:36:45.731Z,28.60
2018-10-17T03:39:14.397Z,28.10
2018-10-17T03:41:43.130Z,32.13
2018-10-17T03:44:11.799Z,34.20
2018-10-17T03:46:40.532Z,33.10
2018-10-17T03:49:09.376Z,28.23
2018-10-17T03:51:38.082Z,26.10
2018-10-17T03:54:06.881Z,29.23
2018-10-17T03:56:35.623Z,37.07
2018-10-17T03:59:04.536Z,39.70
2018-10-17T04:01:33.307Z,27.80
2018-10-17T04:04:02.018Z,23.90
2018-10-17T04:06:30.705Z,22.43
2018-10-17T04:08:59.460Z,22.87
2018-10-17T04:11:28.521Z,22.63
2018-10-17T04:13:57.343Z,20.07
2018-10-17T04:16:26.578Z,25.00
2018-10-17T04:18:55.346Z,30.00
2018-10-17T04:21:24.175Z,34.07
2018-10-17T04:23:52.856Z,37.27
2018-10-17T04:26:21.593Z,32.73
2018-10-17T04:28:50.291Z,33.70
2018-10-17T04:31:19.093Z,34.37
2018-10-17T04:33:47.791Z,34.90
2018-10-17T04:36:16.623Z,32.80
2018-10-17T04:38:52.006Z,28.37
2018-10-17T04:41:20.783Z,27.37
2018-10-17T04:43:49.496Z,28.70
2018-10-17T04:46:18.198Z,28.63
2018-10-17T04:48:46.909Z,27.43
2018-10-17T04:51:15.618Z,26.73
2018-10-17T04:53:44.369Z,25.37
2018-10-17T04:56:13.035Z,25.40
2018-10-17T04:58:41.779Z,27.07
2018-10-17T05:01:10.481Z,24.93
2018-10-17T05:03:39.150Z,27.67
2018-10-17T05:06:07.823Z,27.43
2018-10-17T05:08:36.557Z,24.67
2018-10-17T05:11:05.992Z,25.73
2018-10-17T05:13:34.872Z,23.23
2018-10-17T05:16:03.533Z,24.97
2018-10-17T05:18:32.201Z,28.60
2018-10-17T05:21:00.910Z,25.07
2018-10-17T05:23:29.586Z,23.03
2018-10-17T05:25:58.308Z,21.93
2018-10-17T05:28:26.939Z,24.20
2018-10-17T05:30:55.697Z,28.07
2018-10-17T05:33:24.380Z,30.03
2018-10-17T05:35:53.125Z,28.10
2018-10-17T05:38:21.860Z,28.27
2018-10-17T05:40:50.555Z,27.73
2018-10-17T05:43:19.259Z,27.00
2018-10-17T05:45:48.022Z,29.00
2018-10-17T05:48:16.761Z,26.53
2018-10-17T05:50:45.462Z,32.87
2018-10-17T05:53:14.216Z,31.20
2018-10-17T05:55:42.877Z,31.03
2018-10-17T05:58:11.627Z,27.63
2018-10-17T06:00:40.360Z,29.53
2018-10-17T06:03:09.056Z,29.63
2018-10-17T06:05:37.811Z,33.23
2018-10-17T06:08:06.506Z,31.43
2018-10-17T06:10:35.181Z,30.07
2018-10-17T06:13:03.965Z,32.87
2018-10-17T06:15:32.728Z,30.43
2018-10-17T06:18:02.333Z,30.73
2018-10-17T06:20:31.039Z,28.67
2018-10-17T06:22:59.837Z,27.80
2018-10-17T06:25:28.502Z,28.10
2018-10-17T06:27:57.231Z,27.63
2018-10-17T06:30:25.940Z,28.33
2018-10-17T06:32:54.690Z,27.47
2018-10-17T06:35:23.392Z,26.73
2018-10-17T06:37:52.271Z,28.10
2018-10-17T06:40:21.007Z,25.77
2018-10-17T06:42:49.691Z,26.50
2018-10-17T06:45:18.435Z,26.67
2018-10-17T06:47:47.155Z,27.57
2018-10-17T06:50:15.852Z,25.60
2018-10-17T06:52:44.676Z,26.00
2018-10-17T06:55:13.387Z,26.03
2018-10-17T06:57:42.132Z,24.97
2018-10-17T07:00:11.599Z,23.90
2018-10-17T07:02:40.375Z,26.07
2018-10-17T07:05:10.368Z,24.47
2018-10-17T07:07:39.434Z,24.27
2018-10-17T07:10:08.162Z,23.77
2018-10-17T07:12:36.883Z,24.23
2018-10-17T07:15:06.983Z,24.20
2018-10-17T07:17:36.264Z,24.50
2018-10-17T07:20:05.716Z,24.70
2018-10-17T07:22:34.481Z,23.50
2018-10-17T07:25:03.233Z,24.27
2018-10-17T07:27:31.968Z,29.03
2018-10-17T07:30:00.687Z,25.43
2018-10-17T07:32:29.408Z,25.30
2018-10-17T07:34:58.087Z,24.60
2018-10-17T07:37:26.855Z,26.03
2018-10-17T07:40:02.232Z,25.97
2018-10-17T07:42:30.956Z,26.53
2018-10-17T07:44:59.671Z,23.17
2018-10-17T07:47:28.407Z,20.30
2018-10-17T07:49:57.139Z,25.87
2018-10-17T07:52:25.868Z,22.33
2018-10-17T07:54:54.602Z,20.07
2018-10-17T07:57:23.327Z,23.63
2018-10-17T07:59:52.134Z,22.27
2018-10-17T08:02:20.839Z,20.30
2018-10-17T08:04:49.860Z,22.23
2018-10-17T08:07:18.681Z,21.20
2018-10-17T08:09:47.464Z,20.33
2018-10-17T08:12:16.300Z,23.67
2018-10-17T08:14:44.906Z,21.93
2018-10-17T08:17:13.633Z,22.73
2018-10-17T08:19:42.358Z,20.67
2018-10-17T08:22:11.075Z,20.20
2018-10-17T08:24:39.976Z,20.47
2018-10-17T08:27:08.849Z,19.73
2018-10-17T08:29:37.522Z,20.07
2018-10-17T08:32:07.275Z,18.83
2018-10-17T08:34:36.303Z,22.73
2018-10-17T08:37:05.602Z,21.30
2018-10-17T08:39:33.845Z,24.57
2018-10-17T08:42:03.097Z,22.57
2018-10-17T08:44:31.885Z,21.00
2018-10-17T08:47:01.078Z,20.93
2018-10-17T08:49:30.319Z,21.70
2018-10-17T08:51:59.565Z,21.57
2018-10-17T08:54:28.601Z,23.63
2018-10-17T08:56:57.839Z,24.83
2018-10-17T08:59:26.607Z,22.63
2018-10-17T09:01:55.486Z,18.80
2018-10-17T09:04:24.290Z,18.00
2018-10-17T09:06:52.993Z,19.17
2018-10-17T09:09:21.740Z,17.57
2018-10-17T09:11:50.466Z,22.50
2018-10-17T09:14:19.314Z,21.00
2018-10-17T09:16:48.126Z,17.67
2018-10-17T09:27:48.806Z,18.43
2018-10-17T09:30:17.577Z,18.07
2018-10-17T09:32:46.221Z,18.13
2018-10-17T09:35:15.043Z,14.93
2018-10-17T09:37:43.688Z,19.07
2018-10-17T09:40:12.493Z,15.33
2018-10-17T09:42:41.687Z,16.43
2018-10-17T09:45:11.099Z,14.70
2018-10-17T09:47:39.925Z,16.60
2018-10-17T09:50:09.661Z,17.23
2018-10-17T09:52:38.299Z,18.63
2018-10-17T10:29:43.595Z,21.57
2018-10-17T10:32:12.287Z,18.80
2018-10-17T10:34:40.976Z,18.70
2018-10-17T10:37:09.926Z,18.50
2018-10-17T10:39:38.888Z,19.63
2018-10-17T10:42:07.797Z,19.33
2018-10-17T10:44:37.196Z,19.07
2018-10-17T10:47:06.164Z,18.73
2018-10-17T10:49:35.535Z,21.83
2018-10-17T10:52:04.544Z,19.67
2018-10-17T10:54:33.254Z,20.40
2018-10-17T10:57:02.003Z,18.50
2018-10-17T10:59:30.853Z,19.77
2018-10-17T11:01:59.459Z,21.37
2018-10-17T11:04:28.194Z,18.87
2018-10-17T11:06:56.931Z,19.03
2018-10-17T11:09:25.579Z,20.97
2018-10-17T11:11:54.215Z,21.80
2018-10-17T11:14:23.007Z,17.87
2018-10-17T11:16:51.665Z,19.27
2018-10-17T11:19:20.348Z,20.17
2018-10-17T11:21:49.167Z,20.77
2018-10-17T11:24:17.919Z,19.00
2018-10-17T11:26:46.784Z,30.03
2018-10-17T11:29:15.494Z,15.57
2018-10-17T11:31:44.203Z,13.80
2018-10-17T11:34:12.968Z,16.10
2018-10-17T11:36:41.692Z,13.93
2018-10-17T11:39:11.207Z,16.57
2018-10-17T11:41:40.184Z,17.03
2018-10-17T11:44:08.836Z,17.03
2018-10-17T11:46:37.562Z,14.87
2018-10-17T11:49:06.272Z,15.73
2018-10-17T11:51:34.931Z,14.07
2018-10-17T11:54:03.706Z,15.77
2018-10-17T11:56:32.566Z,14.47
2018-10-17T11:59:01.280Z,17.60
2018-10-17T12:01:29.997Z,13.73
2018-10-17T12:03:58.844Z,15.33
2018-10-17T12:06:27.606Z,16.93
2018-10-17T12:08:56.198Z,14.43
2018-10-17T12:11:24.931Z,14.40
2018-10-17T12:13:53.658Z,17.67
2018-10-17T12:16:22.288Z,17.07
2018-10-17T12:18:51.257Z,14.53
2018-10-17T12:21:19.980Z,17.80
2018-10-17T12:23:48.825Z,18.53
2018-10-17T12:26:17.505Z,17.07
2018-10-17T12:28:46.217Z,13.90
2018-10-17T12:31:14.858Z,14.27
2018-10-17T12:33:43.550Z,16.00
2018-10-17T12:36:12.252Z,14.90
2018-10-17T12:38:41.002Z,13.47
2018-10-17T12:41:09.942Z,16.90
2018-10-17T12:43:38.467Z,14.70
2018-10-17T12:46:07.146Z,11.53
2018-10-17T12:48:35.854Z,16.37
2018-10-17T12:51:04.730Z,14.50
2018-10-17T12:53:33.431Z,14.73
2018-10-17T12:56:02.079Z,16.03
2018-10-17T12:58:30.717Z,17.43
2018-10-17T13:00:59.418Z,13.53
2018-10-17T13:03:28.109Z,15.07
2018-10-17T13:05:56.760Z,13.50
2018-10-17T13:08:25.444Z,11.97
2018-10-17T13:10:54.148Z,15.17
2018-10-17T13:13:22.890Z,14.07
2018-10-17T13:15:51.598Z,15.50
2018-10-17T13:18:20.294Z,16.43
2018-10-17T13:20:48.958Z,14.13
2018-10-17T13:23:17.739Z,14.07
2018-10-17T13:25:46.484Z,15.87
2018-10-17T13:28:15.158Z,20.20
2018-10-17T13:30:43.856Z,15.53
2018-10-17T13:33:12.535Z,17.57
2018-10-17T13:35:41.181Z,14.53
2018-10-17T13:38:09.861Z,14.83
2018-10-17T13:40:38.499Z,14.03
2018-10-17T13:43:07.243Z,15.20
2018-10-17T13:45:35.885Z,16.97
2018-10-17T13:48:04.627Z,15.97
2018-10-17T13:50:33.302Z,17.93
2018-10-17T13:53:02.068Z,16.00
2018-10-17T13:55:30.900Z,14.33
2018-10-17T13:57:59.683Z,12.77
2018-10-17T14:00:28.355Z,14.50
2018-10-17T14:02:57.088Z,19.07
2018-10-17T14:05:25.861Z,14.20
2018-10-17T14:07:54.565Z,17.27
2018-10-17T14:10:23.268Z,28.40
2018-10-17T14:12:51.928Z,23.50
2018-10-17T14:15:20.588Z,15.77
2018-10-17T14:17:49.323Z,14.83
2018-10-17T14:20:17.982Z,10.70
2018-10-17T14:22:46.690Z,13.70
2018-10-17T14:25:15.388Z,25.30
2018-10-17T14:27:44.083Z,16.10
2018-10-17T14:30:12.893Z,15.77
2018-10-17T14:32:41.523Z,12.43
2018-10-17T14:35:11.475Z,19.33
2018-10-17T14:37:40.266Z,14.73
2018-10-17T14:40:09.007Z,17.20
2018-10-17T14:42:37.689Z,22.80
2018-10-17T14:45:08.344Z,19.17
2018-10-17T14:47:37.088Z,13.13
2018-10-17T14:50:06.072Z,13.30
2018-10-17T14:52:34.851Z,14.70
2018-10-17T14:55:03.782Z,18.03
2018-10-17T14:57:32.414Z,13.97
2018-10-17T15:00:01.102Z,14.60
2018-10-17T15:02:45.994Z,13.93
2018-10-17T15:05:14.747Z,15.90
2018-10-17T15:07:43.837Z,13.23
2018-10-17T15:10:12.499Z,14.80
2018-10-17T15:12:41.225Z,13.53
2018-10-17T15:15:11.739Z,35.77
2018-10-17T15:17:40.610Z,24.90
2018-10-17T15:20:12.931Z,15.00
2018-10-17T15:22:41.624Z,23.70
2018-10-17T15:25:10.328Z,15.77
2018-10-17T15:27:39.032Z,17.83
2018-10-17T15:30:08.216Z,16.93
2018-10-17T15:32:37.295Z,15.43
2018-10-17T15:35:07.019Z,14.50
2018-10-17T15:37:35.675Z,19.30
2018-10-17T15:40:04.431Z,22.87
2018-10-17T15:42:33.116Z,19.77
2018-10-17T15:45:01.856Z,18.10
2018-10-17T15:47:30.511Z,20.23
2018-10-17T15:49:59.230Z,43.17
2018-10-17T15:52:27.968Z,42.13
2018-10-17T15:54:57.829Z,30.13
2018-10-17T15:57:26.624Z,35.07
2018-10-17T15:59:55.535Z,31.13
2018-10-17T16:02:24.415Z,25.13
2018-10-17T16:04:53.313Z,25.37
2018-10-17T16:07:28.583Z,26.13
2018-10-17T16:09:57.302Z,24.60
2018-10-17T16:12:26.027Z,24.60
2018-10-17T16:14:54.840Z,24.00
2018-10-17T16:17:23.589Z,26.87
2018-10-17T16:19:52.325Z,56.43
2018-10-17T16:22:21.106Z,29.43
2018-10-17T16:24:49.885Z,30.30
2018-10-17T16:27:18.899Z,34.40
2018-10-17T16:29:47.617Z,24.63
2018-10-17T16:32:16.392Z,26.83
2018-10-17T16:34:45.046Z,22.30
2018-10-17T16:37:13.782Z,22.77
2018-10-17T16:39:42.724Z,25.83
2018-10-17T16:42:11.567Z,31.20
2018-10-17T16:44:40.289Z,28.70
2018-10-17T16:47:08.963Z,30.87
2018-10-17T16:49:37.701Z,28.37
2018-10-17T16:52:06.438Z,25.73
2018-10-17T16:54:35.249Z,33.10
2018-10-17T16:57:04.016Z,23.73
2018-10-17T16:59:32.746Z,32.77
2018-10-17T17:02:01.475Z,29.50
2018-10-17T17:04:30.287Z,34.37
2018-10-17T17:06:58.944Z,29.33
2018-10-17T17:09:37.702Z,33.37
2018-10-17T17:12:07.411Z,28.43
2018-10-17T17:14:36.428Z,28.63
2018-10-17T17:17:05.251Z,29.30
2018-10-17T17:19:34.021Z,26.80
2018-10-17T17:22:03.055Z,28.90
2018-10-17T17:24:31.903Z,25.97
2018-10-17T17:27:00.719Z,28.40
2018-10-17T17:29:29.451Z,28.90
2018-10-17T17:31:58.188Z,30.97
2018-10-17T17:34:26.895Z,27.20
2018-10-17T17:36:55.592Z,30.73
2018-10-17T17:39:24.295Z,31.87
2018-10-17T17:41:53.291Z,35.30
2018-10-17T17:44:22.062Z,33.27
2018-10-17T17:46:50.796Z,30.53
2018-10-17T17:49:19.491Z,35.00
2018-10-17T17:51:48.278Z,32.10
2018-10-17T17:54:17.046Z,27.70
2018-10-17T17:56:45.763Z,29.43
2018-10-17T17:59:14.443Z,32.47
2018-10-17T18:01:43.186Z,33.70
2018-10-17T18:04:12.079Z,29.07
2018-10-17T18:06:40.806Z,28.77
2018-10-17T18:09:11.102Z,35.50
2018-10-17T18:11:39.875Z,34.53
2018-10-17T18:14:08.651Z,30.13
2018-10-17T18:16:37.368Z,29.17
2018-10-17T18:19:06.150Z,36.00
2018-10-17T18:21:34.889Z,33.57
2018-10-17T18:24:03.691Z,34.07
2018-10-17T18:26:32.450Z,39.00
2018-10-17T18:29:01.176Z,38.60
2018-10-17T18:31:29.976Z,45.60
2018-10-17T18:33:58.705Z,36.33
2018-10-17T18:36:27.360Z,35.40
2018-10-17T18:38:56.048Z,36.40
2018-10-17T18:41:24.757Z,26.60
2018-10-17T18:43:53.474Z,30.80
2018-10-17T18:46:22.139Z,28.70
2018-10-17T18:48:50.804Z,32.97
2018-10-17T18:51:19.521Z,33.03
2018-10-17T18:53:48.290Z,32.77
2018-10-17T18:56:17.042Z,28.13
2018-10-17T18:58:45.728Z,31.80
2018-10-17T19:01:14.448Z,34.20
2018-10-17T19:03:43.110Z,37.73
2018-10-17T19:06:11.836Z,31.63
2018-10-17T19:08:40.505Z,25.87
2018-10-17T19:11:09.258Z,32.17
2018-10-17T19:13:38.008Z,36.40
2018-10-17T19:16:06.944Z,36.60
2018-10-17T19:18:35.649Z,34.20
2018-10-17T19:21:04.495Z,35.77
2018-10-17T19:23:33.121Z,31.00
2018-10-17T19:26:01.870Z,30.30
2018-10-17T19:28:30.633Z,37.60
2018-10-17T19:30:59.372Z,37.57
2018-10-17T19:33:28.107Z,40.83
2018-10-17T19:35:56.908Z,47.53
2018-10-17T19:38:25.569Z,43.20
2018-10-17T19:40:54.311Z,38.03
2018-10-17T19:43:23.040Z,36.27
2018-10-17T19:45:51.825Z,46.10
2018-10-17T19:48:20.558Z,39.37
2018-10-17T19:50:49.262Z,49.67
2018-10-17T19:53:17.993Z,51.03
2018-10-17T19:55:46.808Z,47.23
2018-10-17T19:58:15.581Z,47.97
2018-10-17T20:00:44.364Z,47.13
2018-10-17T20:03:13.190Z,46.80
2018-10-17T20:05:41.880Z,50.33
2018-10-17T20:08:10.568Z,46.17
2018-10-17T20:10:39.372Z,48.13
2018-10-17T20:13:08.129Z,48.23
2018-10-17T20:15:36.837Z,47.30
2018-10-17T20:18:05.657Z,39.67
2018-10-17T20:20:34.350Z,29.73
2018-10-17T20:23:03.079Z,34.93
2018-10-17T20:25:31.787Z,41.63
2018-10-17T20:28:00.492Z,43.53
2018-10-17T20:30:35.979Z,47.73
2018-10-17T20:33:05.177Z,50.23
2018-10-17T20:35:33.771Z,52.17
2018-10-17T20:38:02.518Z,40.80
2018-10-17T20:40:31.227Z,40.33
2018-10-17T20:43:00.014Z,37.23
2018-10-17T20:45:28.720Z,39.63
2018-10-17T20:47:57.463Z,39.63
2018-10-17T20:50:26.176Z,39.03
2018-10-17T20:52:54.828Z,37.57
2018-10-17T20:55:23.548Z,50.60
2018-10-17T20:57:52.263Z,57.10
2018-10-17T21:00:20.957Z,48.77
2018-10-17T21:02:49.822Z,58.83
2018-10-17T21:05:18.553Z,48.70
2018-10-17T21:07:47.399Z,49.27
2018-10-17T21:10:16.143Z,43.20
2018-10-17T21:12:44.862Z,42.00
2018-10-17T21:15:13.586Z,50.00
2018-10-17T21:17:42.270Z,46.43
2018-10-17T21:20:11.138Z,26.23
2018-10-17T21:22:39.857Z,24.23
2018-10-17T21:25:08.774Z,25.67
2018-10-17T21:27:37.529Z,34.57
2018-10-17T21:30:07.621Z,36.10
2018-10-17T21:32:36.318Z,41.90
2018-10-17T21:35:05.887Z,41.43
2018-10-17T21:37:34.639Z,38.57
2018-10-17T21:40:05.117Z,37.77
2018-10-17T21:42:33.846Z,40.83
2018-10-17T21:45:02.617Z,62.57
2018-10-17T21:47:31.460Z,88.97
2018-10-17T21:50:00.210Z,98.43
2018-10-17T21:52:29.023Z,81.73
2018-10-17T21:54:57.723Z,68.57
2018-10-17T21:57:26.488Z,59.83
2018-10-17T21:59:55.175Z,67.33
2018-10-17T22:02:24.139Z,83.50
2018-10-17T22:04:52.860Z,90.73
2018-10-17T22:07:21.582Z,88.07
2018-10-17T22:09:50.378Z,92.70
2018-10-17T22:12:19.109Z,56.67
2018-10-17T22:14:47.778Z,32.43
2018-10-17T22:17:20.695Z,26.30
2018-10-17T22:19:49.594Z,34.93
2018-10-17T22:22:18.223Z,56.33
2018-10-17T22:24:46.861Z,59.90
2018-10-17T22:27:15.551Z,58.13
2018-10-17T22:29:44.444Z,56.27
2018-10-17T22:32:13.236Z,56.50
2018-10-17T22:34:41.855Z,51.53
2018-10-17T22:37:10.547Z,51.87
2018-10-17T22:39:39.249Z,54.63
2018-10-17T22:42:07.952Z,52.90
2018-10-17T22:44:36.666Z,48.67
2018-10-17T22:47:06.152Z,29.27
2018-10-17T22:49:34.892Z,24.03
2018-10-17T22:52:03.585Z,24.27
2018-10-17T22:54:32.295Z,32.77
2018-10-17T22:57:00.992Z,31.97
2018-10-17T22:59:30.006Z,35.20
2018-10-17T23:01:58.832Z,33.53
2018-10-17T23:04:27.483Z,36.30
2018-10-17T23:06:56.191Z,37.00
2018-10-17T23:09:24.937Z,37.60
2018-10-17T23:11:53.635Z,36.57
2018-10-17T23:14:22.934Z,32.70
2018-10-17T23:16:51.679Z,33.93
2018-10-17T23:19:20.400Z,33.07
2018-10-17T23:21:49.124Z,37.80
2018-10-17T23:24:17.860Z,34.60
2018-10-17T23:26:46.592Z,34.73
2018-10-17T23:29:15.272Z,36.87
2018-10-17T23:31:44.108Z,49.70
2018-10-17T23:34:12.811Z,48.17
2018-10-17T23:36:41.488Z,45.97
2018-10-17T23:39:10.513Z,45.57
2018-10-17T23:41:40.051Z,43.20
2018-10-17T23:44:08.832Z,46.53
2018-10-17T23:46:37.606Z,47.13
2018-10-17T23:49:06.454Z,48.93
2018-10-17T23:51:35.148Z,46.87
2018-10-17T23:54:03.901Z,44.33
2018-10-17T23:56:32.668Z,47.80
2018-10-17T23:59:01.464Z,45.03
